createdAt,value
2022-11-24T00:01:08.884Z,98742.31
2022-11-24T00:03:36.290Z,98749.03
2022-11-24T00:06:05.764Z,98746.53
2022-11-24T00:08:32.985Z,98749.53
2022-11-24T00:11:08.268Z,98750.53
2022-11-24T00:13:36.346Z,98754.53
2022-11-24T00:16:13.574Z,98748.81
2022-11-24T00:18:49.489Z,98753.81
2022-11-24T00:21:18.693Z,98755.78
2022-11-24T00:23:50.551Z,98757.06
2022-11-24T00:26:23.741Z,98763.78
2022-11-24T00:28:52.900Z,98762.53
2022-11-24T00:31:32.132Z,98770.50
2022-11-24T00:34:01.681Z,98770.78
2022-11-24T00:36:33.193Z,98773.00
2022-11-24T00:39:03.976Z,98765.03
2022-11-24T00:41:34.674Z,98768.50
2022-11-24T00:44:01.777Z,98775.75
2022-11-24T00:46:29.427Z,98781.25
2022-11-24T00:48:57.324Z,98774.75
2022-11-24T00:51:28.029Z,98778.78
2022-11-24T00:53:57.302Z,98784.97
2022-11-24T00:56:28.759Z,98787.50
2022-11-24T00:58:55.816Z,98798.25
2022-11-24T01:01:26.446Z,98798.97
2022-11-24T01:03:55.276Z,98796.22
2022-11-24T01:06:26.048Z,98791.25
2022-11-24T01:08:53.548Z,98791.25
2022-11-24T01:11:23.811Z,98792.75
2022-11-24T01:13:57.836Z,98788.53
2022-11-24T01:16:31.492Z,98796.75
2022-11-24T01:18:58.799Z,98800.53
2022-11-24T01:21:26.251Z,98806.25
2022-11-24T01:23:53.406Z,98802.50
2022-11-24T01:26:22.068Z,98796.75
2022-11-24T01:28:54.586Z,98810.97
2022-11-24T01:31:22.238Z,98800.25
2022-11-24T01:33:49.660Z,98804.25
2022-11-24T01:36:17.635Z,98804.53
2022-11-24T01:38:44.893Z,98809.00
2022-11-24T01:41:20.849Z,98819.72
2022-11-24T01:43:48.767Z,98821.72
2022-11-24T01:46:28.101Z,98829.22
2022-11-24T01:49:26.219Z,98826.47
2022-11-24T01:52:18.904Z,98828.22
2022-11-24T01:54:51.795Z,98827.97
2022-11-24T01:57:26.919Z,98824.25
2022-11-24T01:59:59.814Z,98824.97
2022-11-24T02:02:30.444Z,98823.50
2022-11-24T02:05:03.034Z,98821.72
2022-11-24T02:07:30.951Z,98819.72
2022-11-24T02:10:10.044Z,98823.72
2022-11-24T02:12:43.467Z,98824.72
2022-11-24T02:15:13.113Z,98824.97
2022-11-24T02:17:40.359Z,98815.25
2022-11-24T02:20:10.727Z,98819.47
2022-11-24T02:23:15.546Z,98815.50
2022-11-24T02:25:51.044Z,98813.47
2022-11-24T02:28:21.028Z,98813.25
2022-11-24T02:30:51.166Z,98816.22
2022-11-24T02:33:20.904Z,98821.25
2022-11-24T02:35:48.009Z,98812.75
2022-11-24T02:38:18.234Z,98812.50
2022-11-24T02:40:49.277Z,98820.25
2022-11-24T02:43:22.369Z,98821.50
2022-11-24T02:45:49.425Z,98820.75
2022-11-24T02:48:17.149Z,98830.75
2022-11-24T02:50:44.299Z,98828.00
2022-11-24T02:53:11.664Z,98836.00
2022-11-24T02:55:38.757Z,98832.50
2022-11-24T02:58:06.073Z,98826.03
2022-11-24T03:00:33.178Z,98823.56
2022-11-24T03:03:00.569Z,98825.56
2022-11-24T03:05:27.588Z,98822.31
2022-11-24T03:07:55.028Z,98819.56
2022-11-24T03:10:22.061Z,98818.59
2022-11-24T03:12:49.372Z,98811.59
2022-11-24T03:15:16.420Z,98828.81
2022-11-24T03:17:43.734Z,98831.03
2022-11-24T03:20:14.170Z,98822.31
2022-11-24T03:22:43.680Z,98829.53
2022-11-24T03:25:10.685Z,98828.28
2022-11-24T03:27:40.340Z,98831.03
2022-11-24T03:30:08.218Z,98827.53
2022-11-24T03:32:35.575Z,98834.03
2022-11-24T03:35:02.676Z,98830.78
2022-11-24T03:37:32.493Z,98834.50
2022-11-24T03:39:59.589Z,98837.47
2022-11-24T03:42:27.190Z,98844.47
2022-11-24T03:44:54.178Z,98845.72
2022-11-24T03:47:21.485Z,98848.94
2022-11-24T03:49:48.448Z,98848.19
2022-11-24T03:52:15.780Z,98850.44
2022-11-24T03:54:43.042Z,98860.66
2022-11-24T03:57:13.111Z,98862.41
2022-11-24T03:59:42.378Z,98865.41
2022-11-24T04:02:12.338Z,98870.41
2022-11-24T04:04:39.552Z,98865.66
2022-11-24T04:07:08.008Z,98872.16
2022-11-24T04:09:35.038Z,98868.41
2022-11-24T04:12:20.868Z,98872.44
2022-11-24T04:14:47.818Z,98870.66
2022-11-24T04:17:15.180Z,98871.19
2022-11-24T04:19:44.502Z,98873.19
2022-11-24T04:22:11.777Z,98882.69
2022-11-24T04:24:38.798Z,98885.94
2022-11-24T04:27:06.156Z,98887.19
2022-11-24T04:29:33.107Z,98897.88
2022-11-24T04:32:00.493Z,98908.06
2022-11-24T04:34:27.518Z,98904.34
2022-11-24T04:36:54.985Z,98909.56
2022-11-24T04:39:24.651Z,98919.28
2022-11-24T04:41:53.552Z,98922.50
2022-11-24T04:44:20.553Z,98926.72
2022-11-24T04:46:48.097Z,98922.19
2022-11-24T04:49:17.570Z,98922.94
2022-11-24T04:51:45.086Z,98933.38
2022-11-24T04:54:13.412Z,98927.69
2022-11-24T04:56:42.773Z,98938.38
2022-11-24T04:59:15.659Z,98941.09
2022-11-24T05:01:44.512Z,98944.09
2022-11-24T05:04:13.417Z,98942.06
2022-11-24T05:06:41.072Z,98942.06
2022-11-24T05:09:08.476Z,98940.59
2022-11-24T05:11:35.704Z,98939.34
2022-11-24T05:14:02.671Z,98938.63
2022-11-24T05:16:29.901Z,98945.06
2022-11-24T05:18:56.866Z,98946.59
2022-11-24T05:21:27.885Z,98948.31
2022-11-24T05:23:54.814Z,98945.06
2022-11-24T05:26:22.161Z,98947.56
2022-11-24T05:28:49.270Z,98950.78
2022-11-24T05:31:21.308Z,98960.53
2022-11-24T05:33:48.460Z,98961.78
2022-11-24T05:36:34.457Z,98955.78
2022-11-24T05:39:03.875Z,98963.28
2022-11-24T05:41:31.185Z,98970.28
2022-11-24T05:43:58.136Z,98973.78
2022-11-24T05:46:25.352Z,98976.97
2022-11-24T05:48:52.617Z,98973.97
2022-11-24T05:51:19.889Z,98983.94
2022-11-24T05:53:46.898Z,98987.41
2022-11-24T05:56:14.118Z,98996.13
2022-11-24T05:58:42.545Z,98999.13
2022-11-24T06:01:09.828Z,98997.34
2022-11-24T06:03:36.920Z,98999.84
2022-11-24T06:06:06.565Z,98999.34
2022-11-24T06:08:36.764Z,99009.31
2022-11-24T06:11:18.598Z,99013.28
2022-11-24T06:13:46.836Z,99021.75
2022-11-24T06:16:14.924Z,99014.31
2022-11-24T06:18:42.419Z,99024.56
2022-11-24T06:21:11.568Z,99021.56
2022-11-24T06:23:39.970Z,99025.81
2022-11-24T06:26:09.715Z,99033.53
2022-11-24T06:28:36.821Z,99031.53
2022-11-24T06:31:05.891Z,99038.03
2022-11-24T06:33:37.922Z,99042.28
2022-11-24T06:36:08.436Z,99034.84
2022-11-24T06:38:36.793Z,99036.13
2022-11-24T06:41:06.925Z,99055.13
2022-11-24T06:43:34.736Z,99045.91
2022-11-24T06:46:05.452Z,99052.16
2022-11-24T06:48:32.941Z,99050.69
2022-11-24T06:51:01.705Z,99052.97
2022-11-24T06:53:38.052Z,99056.72
2022-11-24T06:56:13.827Z,99060.69
2022-11-24T06:58:51.296Z,99065.19
2022-11-24T07:01:27.284Z,99068.69
2022-11-24T07:03:57.201Z,99071.72
2022-11-24T07:06:25.867Z,99079.69
2022-11-24T07:08:53.063Z,99077.44
2022-11-24T07:11:22.951Z,99083.69
2022-11-24T07:13:55.113Z,99091.19
2022-11-24T07:16:28.799Z,99088.44
2022-11-24T07:18:58.902Z,99098.91
2022-11-24T07:21:27.752Z,99099.16
2022-11-24T07:23:57.182Z,99109.66
2022-11-24T07:26:25.509Z,99115.41
2022-11-24T07:28:52.869Z,99106.41
2022-11-24T07:31:24.984Z,99119.63
2022-11-24T07:33:54.024Z,99113.38
2022-11-24T07:36:21.946Z,99121.38
2022-11-24T07:38:49.299Z,99120.38
2022-11-24T07:41:19.712Z,99111.63
2022-11-24T07:43:47.804Z,99119.88
2022-11-24T07:46:17.771Z,99121.13
2022-11-24T07:48:46.006Z,99128.88
2022-11-24T07:51:13.769Z,99126.38
2022-11-24T07:53:41.170Z,99123.84
2022-11-24T07:56:09.588Z,99125.63
2022-11-24T07:58:37.732Z,99128.59
2022-11-24T08:01:18.667Z,99132.34
2022-11-24T08:03:49.645Z,99127.34
2022-11-24T08:06:30.510Z,99132.59
2022-11-24T08:09:03.377Z,99133.06
2022-11-24T08:11:31.694Z,99139.06
2022-11-24T08:13:58.813Z,99124.78
2022-11-24T08:16:26.251Z,99143.28
2022-11-24T08:18:55.192Z,99145.50
2022-11-24T08:21:23.694Z,99159.25
2022-11-24T08:23:54.985Z,99151.78
2022-11-24T08:26:23.101Z,99157.78
2022-11-24T08:28:54.357Z,99167.00
2022-11-24T08:31:22.125Z,99158.53
2022-11-24T08:33:49.183Z,99160.53
2022-11-24T08:36:19.326Z,99167.78
2022-11-24T08:38:46.815Z,99163.28
2022-11-24T08:41:16.312Z,99173.53
2022-11-24T08:43:43.634Z,99174.53
2022-11-24T08:46:17.466Z,99183.28
2022-11-24T08:48:50.930Z,99190.53
2022-11-24T08:51:20.532Z,99185.03
2022-11-24T08:53:47.585Z,99187.03
2022-11-24T08:56:23.233Z,99187.56
2022-11-24T08:58:54.134Z,99180.53
2022-11-24T09:01:21.993Z,99181.28
2022-11-24T09:03:51.241Z,99187.03
2022-11-24T09:06:24.946Z,99190.56
2022-11-24T09:08:54.505Z,99187.03
2022-11-24T09:11:22.542Z,99186.53
2022-11-24T09:13:50.075Z,99191.78
2022-11-24T09:16:23.669Z,99185.03
2022-11-24T09:19:02.496Z,99185.53
2022-11-24T09:21:32.376Z,99193.53
2022-11-24T09:23:59.368Z,99189.53
2022-11-24T09:26:30.247Z,99185.03
2022-11-24T09:28:59.088Z,99189.75
2022-11-24T09:31:29.656Z,99188.53
2022-11-24T09:33:57.403Z,99184.78
2022-11-24T09:36:25.382Z,99184.78
2022-11-24T09:38:52.670Z,99184.75
2022-11-24T09:41:42.131Z,99187.78
2022-11-24T09:44:31.905Z,99184.78
2022-11-24T09:47:15.845Z,99178.25
2022-11-24T09:49:59.579Z,99171.75
2022-11-24T09:52:37.920Z,99181.25
2022-11-24T09:55:14.047Z,99180.75
2022-11-24T09:57:45.108Z,99172.25
2022-11-24T10:00:13.591Z,99181.25
2022-11-24T10:02:40.912Z,99181.25
2022-11-24T10:05:15.515Z,99179.22
2022-11-24T10:07:54.266Z,99173.19
2022-11-24T10:10:32.626Z,99186.69
2022-11-24T10:13:14.933Z,99187.44
2022-11-24T10:15:48.061Z,99185.66
2022-11-24T10:18:37.712Z,99184.66
2022-11-24T10:21:39.164Z,99184.13
2022-11-24T10:24:18.810Z,99189.34
2022-11-24T10:26:55.713Z,99188.53
2022-11-24T10:29:39.508Z,99191.25
2022-11-24T10:32:38.514Z,99192.16
2022-11-24T10:35:40.661Z,99193.13
2022-11-24T10:38:20.065Z,99198.19
2022-11-24T10:41:08.875Z,99202.69
2022-11-24T10:43:36.135Z,99202.00
2022-11-24T10:46:11.576Z,99212.75
2022-11-24T10:48:45.863Z,99208.28
2022-11-24T10:51:36.313Z,99205.53
2022-11-24T10:54:21.656Z,99202.75
2022-11-24T10:56:52.339Z,99209.00
2022-11-24T10:59:25.385Z,99201.50
2022-11-24T11:01:53.156Z,99201.78
2022-11-24T11:04:21.861Z,99208.78
2022-11-24T11:06:49.301Z,99200.56
2022-11-24T11:09:19.905Z,99203.81
2022-11-24T11:11:53.264Z,99194.56
2022-11-24T11:14:32.361Z,99199.81
2022-11-24T11:16:59.746Z,99196.88
2022-11-24T11:19:51.873Z,99196.63
2022-11-24T11:22:29.060Z,99194.66
2022-11-24T11:25:27.887Z,99198.66
2022-11-24T11:28:21.957Z,99195.66
2022-11-24T11:31:20.580Z,99202.16
2022-11-24T11:34:26.678Z,99206.19
2022-11-24T11:37:00.647Z,99199.94
2022-11-24T11:39:37.897Z,99201.97
2022-11-24T11:43:00.703Z,99201.47
2022-11-24T11:45:29.032Z,99204.22
2022-11-24T11:48:04.241Z,99198.72
2022-11-24T11:51:21.716Z,99204.72
2022-11-24T11:53:54.583Z,99213.75
2022-11-24T11:56:24.145Z,99204.50
2022-11-24T11:59:06.581Z,99204.50
2022-11-24T12:01:55.781Z,99203.75
2022-11-24T12:04:38.293Z,99205.47
2022-11-24T12:07:41.162Z,99209.50
2022-11-24T12:10:29.439Z,99207.47
2022-11-24T12:13:23.636Z,99204.50
2022-11-24T12:15:54.251Z,99206.75
2022-11-24T12:18:57.615Z,99200.97
2022-11-24T12:21:40.849Z,99204.50
2022-11-24T12:24:14.032Z,99212.47
2022-11-24T12:26:41.048Z,99216.97
2022-11-24T12:29:28.669Z,99213.00
2022-11-24T12:32:35.510Z,99207.25
2022-11-24T12:35:37.721Z,99210.50
2022-11-24T12:38:17.114Z,99208.47
2022-11-24T12:44:50.847Z,99217.22
2022-11-24T12:47:27.103Z,99218.97
2022-11-24T12:50:14.830Z,99221.72
2022-11-24T12:52:58.622Z,99212.97
2022-11-24T12:55:29.104Z,99210.22
2022-11-24T12:58:17.949Z,99217.97
2022-11-24T13:01:44.955Z,99225.72
2022-11-24T13:04:36.288Z,99222.22
2022-11-24T13:07:11.274Z,99216.22
2022-11-24T13:10:00.806Z,99215.97
2022-11-24T13:12:28.075Z,99224.44
2022-11-24T13:14:55.598Z,99222.47
2022-11-24T13:17:50.311Z,99226.47
2022-11-24T13:20:21.731Z,99237.97
2022-11-24T13:23:03.123Z,99237.72
2022-11-24T13:25:33.085Z,99236.47
2022-11-24T13:28:06.753Z,99224.22
2022-11-24T13:30:34.149Z,99224.72
2022-11-24T13:33:16.897Z,99234.72
2022-11-24T13:36:02.455Z,99232.69
2022-11-24T13:38:51.696Z,99226.97
2022-11-24T13:41:36.739Z,99239.72
2022-11-24T13:44:16.249Z,99242.22
2022-11-24T13:47:04.789Z,99239.72
2022-11-24T13:49:39.866Z,99241.72
2022-11-24T13:52:45.081Z,99241.00
2022-11-24T13:55:12.206Z,99246.97
2022-11-24T13:57:53.275Z,99252.72
2022-11-24T14:00:32.332Z,99252.72
2022-11-24T14:03:04.465Z,99260.25
2022-11-24T14:05:47.025Z,99238.97
2022-11-24T14:08:26.239Z,99265.75
2022-11-24T14:10:55.043Z,99254.50
2022-11-24T14:13:22.573Z,99252.00
2022-11-24T14:16:10.161Z,99269.22
2022-11-24T14:18:39.735Z,99264.75
2022-11-24T14:21:22.310Z,99266.97
2022-11-24T14:23:58.576Z,99271.00
2022-11-24T14:26:37.298Z,99271.50
2022-11-24T14:29:13.700Z,99273.75
2022-11-24T14:31:41.162Z,99266.72
2022-11-24T14:34:11.597Z,99265.25
2022-11-24T14:36:42.600Z,99268.25
2022-11-24T14:39:15.544Z,99268.00
2022-11-24T14:41:51.555Z,99276.25
2022-11-24T14:44:24.377Z,99270.00
2022-11-24T14:47:00.960Z,99261.47
2022-11-24T14:49:32.987Z,99270.25
2022-11-24T14:52:10.151Z,99281.25
2022-11-24T14:54:55.522Z,99280.22
2022-11-24T14:57:37.215Z,99279.25
2022-11-24T15:00:21.958Z,99285.97
2022-11-24T15:02:55.374Z,99284.00
2022-11-24T15:05:25.082Z,99282.75
2022-11-24T15:08:02.605Z,99278.75
2022-11-24T15:11:04.133Z,99283.47
2022-11-24T15:13:37.445Z,99298.00
2022-11-24T15:16:21.032Z,99292.50
2022-11-24T15:18:55.561Z,99289.75
2022-11-24T15:21:36.979Z,99297.75
2022-11-24T15:24:15.161Z,99301.50
2022-11-24T15:26:48.039Z,99298.00
2022-11-24T15:29:15.361Z,99307.00
2022-11-24T15:31:46.419Z,99303.50
2022-11-24T15:34:18.817Z,99310.72
2022-11-24T15:36:48.643Z,99311.00
2022-11-24T15:39:15.824Z,99313.47
2022-11-24T15:41:43.206Z,99317.00
2022-11-24T15:44:10.448Z,99313.47
2022-11-24T15:46:38.862Z,99319.75
2022-11-24T15:49:06.825Z,99331.25
2022-11-24T15:51:43.903Z,99341.00
2022-11-24T15:54:20.630Z,99338.75
2022-11-24T15:56:47.991Z,99344.50
2022-11-24T15:59:20.166Z,99342.00
2022-11-24T16:01:50.085Z,99344.00
2022-11-24T16:04:17.642Z,99341.50
2022-11-24T16:06:45.443Z,99347.75
2022-11-24T16:09:15.742Z,99354.50
2022-11-24T16:11:43.439Z,99344.72
2022-11-24T16:14:10.777Z,99350.75
2022-11-24T16:16:40.788Z,99352.72
2022-11-24T16:19:10.140Z,99351.25
2022-11-24T16:21:39.983Z,99347.22
2022-11-24T16:24:13.325Z,99334.97
2022-11-24T16:26:41.177Z,99347.97
2022-11-24T16:29:08.439Z,99356.25
2022-11-24T16:31:39.252Z,99354.50
2022-11-24T16:34:11.348Z,99360.25
2022-11-24T16:36:39.150Z,99363.72
2022-11-24T16:39:06.578Z,99366.75
2022-11-24T16:41:34.657Z,99371.25
2022-11-24T16:44:04.606Z,99374.25
2022-11-24T16:46:32.530Z,99376.50
2022-11-24T16:49:03.648Z,99382.00
2022-11-24T16:51:34.653Z,99383.25
2022-11-24T16:54:03.683Z,99383.75
2022-11-24T16:56:32.130Z,99385.50
2022-11-24T16:58:59.220Z,99381.25
2022-11-24T17:01:27.275Z,99389.50
2022-11-24T17:03:54.721Z,99383.75
2022-11-24T17:06:22.793Z,99390.78
2022-11-24T17:08:50.425Z,99398.28
2022-11-24T17:11:24.014Z,99410.75
2022-11-24T17:13:52.569Z,99406.53
2022-11-24T17:16:34.818Z,99413.50
2022-11-24T17:19:05.592Z,99415.53
2022-11-24T17:21:33.401Z,99422.78
2022-11-24T17:24:05.648Z,99423.28
2022-11-24T17:26:34.427Z,99419.78
2022-11-24T17:29:05.911Z,99427.25
2022-11-24T17:31:35.873Z,99425.53
2022-11-24T17:34:07.087Z,99418.28
2022-11-24T17:36:35.368Z,99424.78
2022-11-24T17:39:05.171Z,99430.28
2022-11-24T17:41:34.499Z,99427.00
2022-11-24T17:44:02.632Z,99428.28
2022-11-24T17:46:31.702Z,99437.28
2022-11-24T17:48:59.498Z,99432.28
2022-11-24T17:51:29.337Z,99437.78
2022-11-24T17:53:58.080Z,99435.53
2022-11-24T17:56:28.184Z,99434.03
2022-11-24T17:58:58.498Z,99434.03
2022-11-24T18:01:31.849Z,99434.03
2022-11-24T18:04:00.554Z,99435.28
2022-11-24T18:06:33.947Z,99437.03
2022-11-24T18:09:01.513Z,99436.53
2022-11-24T18:11:32.282Z,99447.28
2022-11-24T18:14:03.303Z,99438.28
2022-11-24T18:16:34.023Z,99452.53
2022-11-24T18:19:09.091Z,99458.03
2022-11-24T18:21:39.915Z,99459.31
2022-11-24T18:24:11.944Z,99466.28
2022-11-24T18:26:42.214Z,99465.78
2022-11-24T18:29:12.622Z,99463.53
2022-11-24T18:31:42.161Z,99466.56
2022-11-24T18:34:10.217Z,99467.81
2022-11-24T18:36:38.915Z,99468.53
2022-11-24T18:39:09.234Z,99462.06
2022-11-24T18:41:37.654Z,99462.06
2022-11-24T18:44:10.585Z,99468.78
2022-11-24T18:46:40.324Z,99475.28
2022-11-24T18:49:10.859Z,99473.31
2022-11-24T18:51:38.806Z,99478.31
2022-11-24T18:54:06.710Z,99475.81
2022-11-24T18:56:34.957Z,99478.31
2022-11-24T18:59:03.817Z,99479.06
2022-11-24T19:01:32.989Z,99477.31
2022-11-24T19:04:03.157Z,99480.31
2022-11-24T19:06:34.429Z,99475.06
2022-11-24T19:09:07.846Z,99477.56
2022-11-24T19:11:43.474Z,99472.06
2022-11-24T19:14:16.750Z,99481.56
2022-11-24T19:16:46.970Z,99486.06
2022-11-24T19:19:16.424Z,99493.31
2022-11-24T19:21:45.439Z,99493.81
2022-11-24T19:24:16.309Z,99494.84
2022-11-24T19:26:46.089Z,99494.59
2022-11-24T19:29:14.272Z,99495.84
2022-11-24T19:31:44.075Z,99504.09
2022-11-24T19:34:20.752Z,99513.84
2022-11-24T19:36:48.607Z,99500.84
2022-11-24T19:39:17.982Z,99501.84
2022-11-24T19:41:49.483Z,99511.34
2022-11-24T19:44:18.731Z,99509.59
2022-11-24T19:46:47.555Z,99506.34
2022-11-24T19:49:18.241Z,99509.34
2022-11-24T19:51:47.729Z,99506.09
2022-11-24T19:54:16.354Z,99510.59
2022-11-24T19:56:49.151Z,99514.59
2022-11-24T19:59:17.319Z,99515.38
2022-11-24T20:01:48.826Z,99525.38
2022-11-24T20:04:21.114Z,99526.84
2022-11-24T20:06:49.744Z,99524.88
2022-11-24T20:09:21.453Z,99531.84
2022-11-24T20:11:49.633Z,99538.13
2022-11-24T20:14:20.640Z,99533.38
2022-11-24T20:16:48.957Z,99535.38
2022-11-24T20:19:18.858Z,99545.13
2022-11-24T20:21:50.785Z,99547.13
2022-11-24T20:24:25.440Z,99550.88
2022-11-24T20:27:00.252Z,99559.13
2022-11-24T20:29:30.334Z,99552.41
2022-11-24T20:32:03.442Z,99560.16
2022-11-24T20:34:33.363Z,99556.41
2022-11-24T20:37:02.262Z,99560.94
2022-11-24T20:39:30.136Z,99555.41
2022-11-24T20:41:58.518Z,99562.41
2022-11-24T20:44:28.285Z,99566.91
2022-11-24T20:47:00.231Z,99563.91
2022-11-24T20:49:29.193Z,99562.94
2022-11-24T20:51:57.949Z,99576.97
2022-11-24T20:54:26.413Z,99575.69
2022-11-24T20:56:54.705Z,99579.22
2022-11-24T20:59:24.684Z,99577.44
2022-11-24T21:01:56.859Z,99582.94
2022-11-24T21:04:26.995Z,99588.22
2022-11-24T21:06:55.882Z,99585.19
2022-11-24T21:09:25.006Z,99585.69
2022-11-24T21:11:52.880Z,99589.47
2022-11-24T21:14:20.529Z,99588.69
2022-11-24T21:16:48.685Z,99594.97
2022-11-24T21:19:18.776Z,99596.47
2022-11-24T21:21:49.373Z,99596.22
2022-11-24T21:24:19.487Z,99590.22
2022-11-24T21:26:48.078Z,99592.47
2022-11-24T21:29:19.511Z,99597.22
2022-11-24T21:31:50.122Z,99596.22
2022-11-24T21:34:20.579Z,99594.44
2022-11-24T21:36:48.280Z,99600.72
2022-11-24T21:39:16.290Z,99600.22
2022-11-24T21:41:48.488Z,99609.22
2022-11-24T21:44:15.652Z,99603.72
2022-11-24T21:46:48.098Z,99602.47
2022-11-24T21:49:17.031Z,99607.72
2022-11-24T21:51:47.656Z,99611.72
2022-11-24T21:54:14.642Z,99615.72
2022-11-24T21:56:42.274Z,99605.44
2022-11-24T21:59:09.405Z,99615.47
2022-11-24T22:01:36.988Z,99617.47
2022-11-24T22:04:04.183Z,99618.97
2022-11-24T22:06:33.328Z,99613.72
2022-11-24T22:09:00.416Z,99616.22
2022-11-24T22:11:27.697Z,99622.75
2022-11-24T22:13:57.071Z,99625.50
2022-11-24T22:16:26.866Z,99624.47
2022-11-24T22:18:54.139Z,99626.50
2022-11-24T22:21:24.363Z,99632.28
2022-11-24T22:23:52.789Z,99636.00
2022-11-24T22:26:22.881Z,99634.25
2022-11-24T22:28:50.273Z,99644.00
2022-11-24T22:31:22.891Z,99646.50
2022-11-24T22:33:50.899Z,99645.03
2022-11-24T22:36:23.105Z,99648.53
2022-11-24T22:38:58.277Z,99649.03
2022-11-24T22:41:26.094Z,99647.78
2022-11-24T22:43:53.707Z,99652.03
2022-11-24T22:46:23.693Z,99653.03
2022-11-24T22:48:55.194Z,99651.78
2022-11-24T22:51:28.286Z,99653.53
2022-11-24T22:53:57.521Z,99651.53
2022-11-24T22:56:27.990Z,99653.53
2022-11-24T22:58:57.914Z,99655.28
2022-11-24T23:01:26.965Z,99653.03
2022-11-24T23:03:54.731Z,99648.00
2022-11-24T23:06:29.124Z,99654.50
2022-11-24T23:08:57.558Z,99648.22
2022-11-24T23:11:34.808Z,99650.19
2022-11-24T23:14:05.319Z,99655.63
2022-11-24T23:16:32.825Z,99655.59
2022-11-24T23:19:02.259Z,99655.00
2022-11-24T23:21:32.389Z,99652.38
2022-11-24T23:24:03.746Z,99654.31
2022-11-24T23:26:37.050Z,99650.44
2022-11-24T23:29:05.427Z,99650.13
2022-11-24T23:31:33.494Z,99651.88
2022-11-24T23:34:02.613Z,99672.81
2022-11-24T23:36:31.354Z,99659.84
2022-11-24T23:39:03.942Z,99671.34
2022-11-24T23:41:31.981Z,99667.59
2022-11-24T23:43:59.477Z,99667.75
2022-11-24T23:46:28.241Z,99671.09
2022-11-24T23:48:56.441Z,99672.34
2022-11-24T23:51:32.160Z,99670.63
2022-11-24T23:54:01.578Z,99673.63
2022-11-24T23:56:32.680Z,99676.66
2022-11-24T23:59:01.960Z,99672.19
